Time;durP1;ratioP1;P1;durP2;ratioP2;P2;SDS_P1;SDS_P2;PMS_P1;PMS_P2;Temp;Humidity;BMP_temperature;BMP_pressure;BME280_temperature;BME280_humidity;BME280_pressure;Samples;Min_cycle;Max_cycle;Signal;HPM_P1;HPM_P2
2022/11/23 00:01:21;;;;;;;21.02;16.27;;;7.40;99.90;;;;;;5053179;28;20075;-47
2022/11/23 00:03:52;;;;;;;20.63;17.15;;;7.50;99.90;;;;;;5054044;28;20481;-46
2022/11/23 00:06:20;;;;;;;23.40;17.80;;;7.50;99.90;;;;;;5056248;28;20056;-48
2022/11/23 00:08:46;;;;;;;20.92;16.55;;;7.40;99.90;;;;;;5057557;28;20052;-42
2022/11/23 00:11:11;;;;;;;20.98;16.80;;;7.50;99.90;;;;;;5056813;28;20068;-44
2022/11/23 00:13:39;;;;;;;21.83;16.25;;;7.50;99.90;;;;;;5058043;28;20045;-46
2022/11/23 00:16:12;;;;;;;21.92;16.67;;;7.50;99.90;;;;;;5073619;28;20067;-43
2022/11/23 00:18:37;;;;;;;23.80;17.17;;;7.60;99.90;;;;;;5057186;28;20481;-47
2022/11/23 00:21:08;;;;;;;19.05;16.77;;;7.50;99.90;;;;;;5054930;28;20067;-44
2022/11/23 00:23:34;;;;;;;25.50;16.40;;;7.50;99.90;;;;;;5055012;28;20058;-42
2022/11/23 00:25:59;;;;;;;20.73;17.50;;;7.50;99.90;;;;;;5056033;28;20055;-46
2022/11/23 00:28:25;;;;;;;19.38;16.35;;;7.50;99.90;;;;;;5057848;28;20402;-46
2022/11/23 00:30:51;;;;;;;21.67;17.02;;;7.50;99.90;;;;;;5056692;28;20048;-43
2022/11/23 00:33:17;;;;;;;25.48;16.75;;;7.50;99.90;;;;;;5057423;28;20041;-42
2022/11/23 00:35:43;;;;;;;20.75;16.67;;;7.50;99.90;;;;;;5057417;28;20344;-47
2022/11/23 00:38:08;;;;;;;24.65;18.30;;;7.60;99.90;;;;;;5056630;28;20078;-43
2022/11/23 00:40:34;;;;;;;22.83;16.45;;;7.60;99.90;;;;;;5051641;28;20470;-46
2022/11/23 00:42:59;;;;;;;23.58;16.83;;;7.60;99.90;;;;;;5054063;28;20566;-44
2022/11/23 00:45:25;;;;;;;24.90;17.65;;;7.50;99.90;;;;;;5053879;28;20521;-47
2022/11/23 00:47:51;;;;;;;26.00;16.55;;;7.50;99.90;;;;;;5057008;28;20064;-47
2022/11/23 00:50:16;;;;;;;22.52;16.38;;;7.60;99.90;;;;;;5056559;28;20049;-46
2022/11/23 00:52:42;;;;;;;21.55;17.42;;;7.50;99.90;;;;;;5057085;28;20048;-42
2022/11/23 00:55:08;;;;;;;21.27;16.42;;;7.50;99.90;;;;;;5057045;28;20080;-45
2022/11/23 00:57:34;;;;;;;24.90;17.73;;;7.50;99.90;;;;;;5055484;28;20052;-47
2022/11/23 01:00:00;;;;;;;23.02;17.08;;;7.50;99.90;;;;;;5054801;28;20397;-47
2022/11/23 01:02:25;;;;;;;27.33;18.40;;;7.60;99.90;;;;;;5057093;28;20467;-43
2022/11/23 01:04:51;;;;;;;25.27;16.42;;;7.50;99.90;;;;;;5057003;28;20144;-45
2022/11/23 01:07:17;;;;;;;27.23;17.17;;;7.50;99.90;;;;;;5055878;28;20058;-46
2022/11/23 01:09:42;;;;;;;26.00;17.55;;;7.60;99.90;;;;;;5055082;28;20045;-44
2022/11/23 01:12:08;;;;;;;21.23;16.88;;;7.60;99.90;;;;;;5056041;28;20052;-46
2022/11/23 01:14:34;;;;;;;23.67;17.20;;;7.50;99.90;;;;;;5056939;28;20395;-44
2022/11/23 01:16:59;;;;;;;24.27;17.48;;;7.50;99.90;;;;;;5056049;28;20048;-50
2022/11/23 01:19:25;;;;;;;25.08;17.20;;;7.50;99.90;;;;;;5055547;28;20050;-44
2022/11/23 01:21:51;;;;;;;26.08;17.15;;;7.50;99.90;;;;;;5051710;28;20402;-43
2022/11/23 01:24:21;;;;;;;23.33;16.88;;;7.50;99.90;;;;;;5054806;28;20162;-48
2022/11/23 01:26:52;;;;;;;19.90;16.08;;;7.60;99.90;;;;;;5056159;28;20548;-45
2022/11/23 01:29:18;;;;;;;23.48;17.50;;;7.50;99.90;;;;;;5053398;28;20147;-47
2022/11/23 01:31:44;;;;;;;25.77;18.17;;;7.60;99.90;;;;;;5056146;28;20326;-47
2022/11/23 01:34:11;;;;;;;26.08;19.02;;;7.60;99.90;;;;;;5056379;28;20542;-47
2022/11/23 01:36:37;;;;;;;25.50;17.35;;;7.50;99.90;;;;;;5054308;28;20118;-49
2022/11/23 01:39:04;;;;;;;25.63;18.02;;;7.60;99.90;;;;;;5055038;28;20070;-47
2022/11/23 01:41:35;;;;;;;24.98;18.23;;;7.60;99.90;;;;;;5053247;28;20580;-48
2022/11/23 01:44:28;;;;;;;26.73;17.92;;;7.60;99.90;;;;;;5055778;28;20044;-45
2022/11/23 01:46:57;;;;;;;24.55;17.42;;;7.50;99.90;;;;;;5054263;28;20045;-48
2022/11/23 01:49:24;;;;;;;22.00;17.48;;;7.60;99.90;;;;;;5052968;28;20457;-43
2022/11/23 01:51:53;;;;;;;26.75;18.63;;;7.50;99.90;;;;;;5055530;28;20127;-48
2022/11/23 01:54:33;;;;;;;24.40;18.52;;;7.50;99.90;;;;;;5053712;28;20485;-47
2022/11/23 01:57:05;;;;;;;26.38;19.30;;;7.60;99.90;;;;;;5055452;28;20044;-48
2022/11/23 01:59:33;;;;;;;25.02;18.38;;;7.60;99.90;;;;;;5053596;28;20107;-43
2022/11/23 02:01:59;;;;;;;22.25;18.23;;;7.60;99.90;;;;;;5055133;28;20419;-49
2022/11/23 02:04:31;;;;;;;28.13;19.00;;;7.60;99.90;;;;;;5054283;28;20052;-47
2022/11/23 02:06:59;;;;;;;30.50;19.77;;;7.60;99.90;;;;;;5055094;28;20060;-51
2022/11/23 02:09:29;;;;;;;25.67;19.77;;;7.70;99.90;;;;;;5054085;28;20056;-48
2022/11/23 02:11:55;;;;;;;27.38;19.20;;;7.60;99.90;;;;;;5055222;28;20056;-44
2022/11/23 02:14:21;;;;;;;32.28;20.42;;;7.70;99.90;;;;;;5055433;28;20196;-50
2022/11/23 02:16:46;;;;;;;31.60;19.85;;;7.60;99.90;;;;;;5054535;28;20334;-46
2022/11/23 02:19:31;;;;;;;30.25;20.92;;;7.70;99.90;;;;;;5053007;28;20090;-46
2022/11/23 02:21:56;;;;;;;31.83;21.13;;;7.60;99.90;;;;;;5049557;28;20286;-46
2022/11/23 02:24:38;;;;;;;41.58;22.70;;;7.60;99.90;;;;;;5037439;28;20968;-45
2022/11/23 02:27:06;;;;;;;42.85;23.23;;;7.60;99.90;;;;;;5054902;28;20510;-47
2022/11/23 02:29:33;;;;;;;36.67;23.77;;;7.60;99.90;;;;;;5053737;28;20131;-50
2022/11/23 02:31:59;;;;;;;34.45;23.25;;;7.60;99.90;;;;;;5055124;28;20546;-50
2022/11/23 02:34:25;;;;;;;37.42;24.17;;;7.60;99.90;;;;;;5054411;28;20394;-45
2022/11/23 02:36:53;;;;;;;37.67;23.65;;;7.60;99.90;;;;;;5055201;28;20048;-44
2022/11/23 02:39:28;;;;;;;37.65;23.63;;;7.70;99.90;;;;;;5035571;28;20471;-45
2022/11/23 02:41:54;;;;;;;38.35;24.42;;;7.60;99.90;;;;;;5054079;28;20248;-45
2022/11/23 02:44:24;;;;;;;44.47;25.83;;;7.60;99.90;;;;;;5054155;28;20504;-42
2022/11/23 02:46:51;;;;;;;37.85;25.08;;;7.70;99.90;;;;;;5052612;28;20075;-43
2022/11/23 02:49:17;;;;;;;43.45;26.45;;;7.60;99.90;;;;;;5052220;28;20565;-46
2022/11/23 02:51:42;;;;;;;45.97;27.92;;;7.60;99.90;;;;;;5054669;28;20060;-46
2022/11/23 02:54:08;;;;;;;46.03;26.83;;;7.60;99.90;;;;;;5054221;28;20060;-43
2022/11/23 02:56:34;;;;;;;48.38;28.40;;;7.50;99.90;;;;;;5054799;28;20055;-43
2022/11/23 02:58:59;;;;;;;51.95;29.15;;;7.60;99.90;;;;;;5052788;28;20529;-48
2022/11/23 03:01:25;;;;;;;45.05;28.80;;;7.50;99.90;;;;;;5043177;28;20429;-45
2022/11/23 03:03:51;;;;;;;49.30;29.70;;;7.50;99.90;;;;;;5047758;28;20495;-44
2022/11/23 03:06:16;;;;;;;50.33;30.85;;;7.60;99.90;;;;;;5052535;28;20484;-44
2022/11/23 03:08:42;;;;;;;47.13;29.67;;;7.60;99.90;;;;;;5053818;28;20048;-46
2022/11/23 03:11:07;;;;;;;53.67;31.17;;;7.50;99.90;;;;;;5051273;28;20061;-44
2022/11/23 03:13:33;;;;;;;50.08;31.80;;;7.50;99.90;;;;;;5053951;28;20060;-48
2022/11/23 03:15:59;;;;;;;51.53;31.58;;;7.60;99.90;;;;;;5054493;28;20059;-47
2022/11/23 03:18:25;;;;;;;49.83;31.40;;;7.60;99.90;;;;;;5054838;28;20044;-48
2022/11/23 03:20:50;;;;;;;51.85;31.52;;;7.60;99.90;;;;;;5053806;28;20036;-43
2022/11/23 03:23:16;;;;;;;56.28;31.75;;;7.50;99.90;;;;;;5049937;28;20051;-42
2022/11/23 03:25:42;;;;;;;49.05;31.15;;;7.60;99.90;;;;;;5054018;28;20056;-46
2022/11/23 03:28:08;;;;;;;48.70;30.67;;;7.60;99.90;;;;;;5053965;28;20055;-47
2022/11/23 03:30:33;;;;;;;51.25;31.70;;;7.50;99.90;;;;;;5052801;28;20095;-43
2022/11/23 03:32:59;;;;;;;50.55;31.45;;;7.50;99.90;;;;;;5052577;28;20049;-49
2022/11/23 03:35:25;;;;;;;53.75;32.20;;;7.40;99.90;;;;;;5054388;28;20446;-48
2022/11/23 03:37:50;;;;;;;57.55;33.05;;;7.50;99.90;;;;;;5054494;28;20048;-43
2022/11/23 03:40:16;;;;;;;56.13;31.73;;;7.50;99.90;;;;;;5052617;28;20048;-43
2022/11/23 03:42:42;;;;;;;56.05;31.52;;;7.30;99.90;;;;;;5058234;28;20445;-43
2022/11/23 03:45:08;;;;;;;55.35;32.83;;;7.40;99.90;;;;;;5054756;28;20167;-46
2022/11/23 03:47:35;;;;;;;54.63;34.08;;;7.40;99.90;;;;;;5058127;28;20051;-44
2022/11/23 03:50:00;;;;;;;54.35;34.80;;;7.40;99.90;;;;;;5055094;28;20059;-45
2022/11/23 03:52:26;;;;;;;57.08;33.78;;;7.30;99.90;;;;;;5058413;28;20036;-44
2022/11/23 03:54:52;;;;;;;55.10;33.85;;;7.30;99.90;;;;;;5058277;28;20032;-43
2022/11/23 03:57:17;;;;;;;55.00;35.17;;;7.30;99.90;;;;;;5057140;28;20393;-42
2022/11/23 03:59:43;;;;;;;63.20;35.42;;;7.30;99.90;;;;;;5056716;28;20109;-46
2022/11/23 04:02:09;;;;;;;58.63;37.95;;;7.40;99.90;;;;;;5056970;28;20044;-42
2022/11/23 04:04:35;;;;;;;61.78;36.35;;;7.30;99.90;;;;;;5057878;28;20049;-46
2022/11/23 04:07:01;;;;;;;61.50;37.10;;;7.40;99.90;;;;;;5057575;28;20410;-50
2022/11/23 04:09:26;;;;;;;62.60;36.83;;;7.40;99.90;;;;;;5056645;28;20041;-49
2022/11/23 04:11:52;;;;;;;71.07;39.92;;;7.30;99.90;;;;;;5057592;28;20044;-43
2022/11/23 04:14:18;;;;;;;67.93;39.55;;;7.30;99.90;;;;;;5057963;28;20690;-46
2022/11/23 04:16:43;;;;;;;67.20;39.00;;;7.50;99.90;;;;;;5057420;28;20566;-44
2022/11/23 04:19:09;;;;;;;62.55;39.22;;;7.50;99.90;;;;;;5056249;28;20048;-47
2022/11/23 04:21:35;;;;;;;62.72;40.35;;;7.50;99.90;;;;;;5051651;28;20163;-43
2022/11/23 04:24:00;;;;;;;61.28;38.95;;;7.40;99.90;;;;;;5054759;28;20507;-46
2022/11/23 04:26:26;;;;;;;60.05;38.67;;;7.50;99.90;;;;;;5056956;28;20059;-45
2022/11/23 04:28:52;;;;;;;72.40;41.10;;;7.50;99.90;;;;;;5056489;28;20048;-44
2022/11/23 04:31:17;;;;;;;67.57;40.72;;;7.50;99.90;;;;;;5056319;28;20055;-44
2022/11/23 04:33:43;;;;;;;64.55;38.75;;;7.50;99.90;;;;;;5056739;28;20354;-43
2022/11/23 04:36:09;;;;;;;67.07;39.28;;;7.50;99.90;;;;;;5056972;28;20048;-47
2022/11/23 04:38:34;;;;;;;70.80;42.03;;;7.50;99.90;;;;;;5055505;28;20060;-44
2022/11/23 04:41:00;;;;;;;64.82;39.78;;;7.50;99.90;;;;;;5056271;28;20106;-44
2022/11/23 04:43:26;;;;;;;70.10;41.05;;;7.40;99.90;;;;;;5057053;28;20044;-47
2022/11/23 04:45:51;;;;;;;59.88;39.17;;;7.50;99.90;;;;;;5054323;28;20131;-45
2022/11/23 04:48:17;;;;;;;60.45;37.83;;;7.50;99.90;;;;;;5056791;28;20099;-45
2022/11/23 04:50:42;;;;;;;71.43;40.83;;;7.50;99.90;;;;;;5055877;28;20053;-43
2022/11/23 04:53:08;;;;;;;62.42;39.03;;;7.40;99.90;;;;;;5056225;28;20497;-44
2022/11/23 04:55:34;;;;;;;57.90;38.55;;;7.40;99.90;;;;;;5076195;28;20501;-45
2022/11/23 04:58:00;;;;;;;67.70;40.70;;;7.50;99.90;;;;;;5056142;28;20047;-45
2022/11/23 05:00:26;;;;;;;67.43;39.78;;;7.50;99.90;;;;;;5053611;28;20458;-42
2022/11/23 05:02:51;;;;;;;70.18;39.22;;;7.50;99.90;;;;;;5057021;28;20113;-42
2022/11/23 05:05:17;;;;;;;66.15;37.70;;;7.40;99.90;;;;;;5055328;28;20041;-46
2022/11/23 05:07:43;;;;;;;77.97;41.83;;;7.40;99.90;;;;;;5055711;28;20056;-44
2022/11/23 05:10:09;;;;;;;67.63;38.65;;;7.50;99.90;;;;;;5055949;28;20053;-44
2022/11/23 05:12:35;;;;;;;75.90;41.42;;;7.50;99.90;;;;;;5056383;28;20490;-45
2022/11/23 05:15:02;;;;;;;70.05;38.25;;;7.40;99.90;;;;;;5056224;28;20194;-45
2022/11/23 05:17:27;;;;;;;75.95;39.63;;;7.40;99.90;;;;;;5057212;28;20048;-43
2022/11/23 05:19:55;;;;;;;72.05;40.58;;;7.40;99.90;;;;;;5053875;28;20572;-43
2022/11/23 05:22:20;;;;;;;73.82;40.33;;;7.50;99.90;;;;;;5034434;28;20128;-45
2022/11/23 05:24:46;;;;;;;67.10;38.22;;;7.50;99.90;;;;;;5056780;28;20071;-45
2022/11/23 05:27:12;;;;;;;66.68;37.78;;;7.40;99.90;;;;;;5055308;28;20094;-45
2022/11/23 05:29:37;;;;;;;66.85;39.17;;;7.40;99.90;;;;;;5053975;28;20063;-46
2022/11/23 05:32:03;;;;;;;65.38;37.70;;;7.40;99.90;;;;;;5054521;28;20048;-47
2022/11/23 05:34:29;;;;;;;63.63;37.13;;;7.50;99.90;;;;;;5055767;28;20535;-44
2022/11/23 05:36:54;;;;;;;62.33;36.03;;;7.50;99.90;;;;;;5054350;28;20048;-46
2022/11/23 05:39:20;;;;;;;60.25;36.20;;;7.40;99.90;;;;;;5054628;28;20499;-42
2022/11/23 05:41:46;;;;;;;59.92;36.20;;;7.40;99.90;;;;;;5049502;28;20110;-44
2022/11/23 05:44:11;;;;;;;64.32;35.80;;;7.40;99.90;;;;;;5054193;28;20049;-46
2022/11/23 05:46:37;;;;;;;59.33;35.85;;;7.50;99.90;;;;;;5052335;28;20118;-44
2022/11/23 05:49:02;;;;;;;56.15;35.13;;;7.40;99.90;;;;;;5054345;28;20052;-45
2022/11/23 05:51:28;;;;;;;52.13;31.63;;;7.50;99.90;;;;;;5055570;28;20129;-43
2022/11/23 05:53:56;;;;;;;48.42;31.08;;;7.40;99.90;;;;;;5056379;28;20123;-49
2022/11/23 05:56:21;;;;;;;51.55;31.55;;;7.40;99.90;;;;;;5056021;28;20398;-44
2022/11/23 05:58:47;;;;;;;45.75;30.42;;;7.50;99.90;;;;;;5054144;28;20056;-43
2022/11/23 06:01:12;;;;;;;39.65;28.17;;;7.50;99.90;;;;;;5055530;28;20139;-45
2022/11/23 06:03:38;;;;;;;43.55;28.73;;;7.50;99.90;;;;;;5054368;28;20044;-47
2022/11/23 06:06:05;;;;;;;41.92;28.13;;;7.40;99.90;;;;;;5054886;28;20112;-47
2022/11/23 06:08:30;;;;;;;39.22;26.98;;;7.40;99.90;;;;;;5054965;28;20058;-43
2022/11/23 06:11:00;;;;;;;41.20;26.13;;;7.30;99.90;;;;;;5052927;28;20646;-46
2022/11/23 06:13:25;;;;;;;42.03;26.48;;;7.40;99.90;;;;;;5054738;28;20040;-43
2022/11/23 06:15:51;;;;;;;39.35;25.80;;;7.30;99.90;;;;;;5055208;28;20494;-42
2022/11/23 06:18:17;;;;;;;36.92;25.08;;;7.30;99.90;;;;;;5055237;28;20052;-45
2022/11/23 06:20:42;;;;;;;38.35;26.60;;;7.30;99.90;;;;;;5053218;28;20060;-45
2022/11/23 06:23:08;;;;;;;43.25;25.67;;;7.30;99.90;;;;;;5051433;28;20099;-44
2022/11/23 06:25:34;;;;;;;35.75;25.15;;;7.30;99.90;;;;;;5055342;28;20059;-47
2022/11/23 06:28:00;;;;;;;33.10;24.88;;;7.20;99.90;;;;;;5054718;28;20665;-48
2022/11/23 06:30:27;;;;;;;38.65;27.50;;;7.20;99.90;;;;;;5052617;28;20143;-43
2022/11/23 06:32:53;;;;;;;35.85;23.75;;;7.20;99.90;;;;;;5055181;28;20487;-44
2022/11/23 06:35:19;;;;;;;31.00;23.75;;;7.20;99.90;;;;;;5053114;28;20087;-44
2022/11/23 06:37:48;;;;;;;34.22;23.75;;;7.20;99.90;;;;;;5054915;28;20053;-47
2022/11/23 06:40:13;;;;;;;33.65;23.75;;;7.20;99.90;;;;;;5053810;28;20574;-43
2022/11/23 06:42:39;;;;;;;33.30;23.42;;;7.20;99.90;;;;;;5054847;28;20049;-48
2022/11/23 06:45:06;;;;;;;38.05;23.38;;;7.10;99.90;;;;;;5051244;28;20051;-44
2022/11/23 06:47:31;;;;;;;35.38;24.17;;;7.10;99.90;;;;;;5054904;28;20080;-47
2022/11/23 06:49:57;;;;;;;35.35;22.60;;;7.10;99.90;;;;;;5054237;28;20127;-45
2022/11/23 06:52:22;;;;;;;35.65;22.30;;;7.10;99.90;;;;;;5055375;28;20045;-46
2022/11/23 06:54:48;;;;;;;33.03;21.35;;;7.10;99.90;;;;;;5055109;28;20295;-41
2022/11/23 06:57:14;;;;;;;32.80;19.73;;;7.20;99.90;;;;;;5054801;28;20383;-43
2022/11/23 06:59:40;;;;;;;27.80;19.05;;;7.20;99.90;;;;;;5052736;28;20059;-43
2022/11/23 07:02:05;;;;;;;25.92;19.27;;;7.10;99.90;;;;;;5054582;28;20045;-45
2022/11/23 07:04:31;;;;;;;28.85;18.83;;;7.20;99.90;;;;;;5054094;28;20048;-43
2022/11/23 07:06:57;;;;;;;28.60;17.90;;;7.10;99.90;;;;;;5054850;28;20052;-48
2022/11/23 07:09:22;;;;;;;27.48;17.85;;;7.20;99.90;;;;;;5054359;28;20047;-43
2022/11/23 07:11:48;;;;;;;29.77;17.25;;;7.20;99.90;;;;;;5054418;28;21014;-44
2022/11/23 07:14:14;;;;;;;28.42;16.17;;;7.20;99.90;;;;;;5053942;28;20554;-45
2022/11/23 07:16:39;;;;;;;24.20;16.60;;;7.20;99.90;;;;;;5054283;28;20554;-44
2022/11/23 07:19:05;;;;;;;25.98;16.23;;;7.20;99.90;;;;;;5053377;28;20254;-44
2022/11/23 07:21:31;;;;;;;24.42;14.93;;;7.20;99.90;;;;;;5049742;28;20065;-47
2022/11/23 07:23:56;;;;;;;21.67;14.85;;;7.20;99.90;;;;;;5054570;28;20048;-43
2022/11/23 07:26:22;;;;;;;26.23;15.23;;;7.20;99.90;;;;;;5054231;28;20511;-47
2022/11/23 07:28:47;;;;;;;22.50;14.98;;;7.20;99.90;;;;;;5053289;28;20059;-45
2022/11/23 07:31:14;;;;;;;23.88;14.18;;;7.20;99.90;;;;;;5053831;28;20059;-45
2022/11/23 07:33:47;;;;;;;19.08;14.73;;;7.20;99.90;;;;;;5053672;28;20102;-46
2022/11/23 07:36:13;;;;;;;23.05;14.27;;;7.30;99.90;;;;;;5052964;28;20053;-42
2022/11/23 07:38:39;;;;;;;27.45;14.57;;;7.20;99.90;;;;;;5053226;28;20041;-48
2022/11/23 07:41:05;;;;;;;21.00;14.35;;;7.30;99.90;;;;;;5053878;28;20387;-45
2022/11/23 07:43:31;;;;;;;24.95;15.10;;;7.30;99.90;;;;;;5054303;28;20064;-42
2022/11/23 07:45:56;;;;;;;21.58;14.23;;;7.20;99.90;;;;;;5050516;28;20422;-48
2022/11/23 07:48:23;;;;;;;24.15;13.98;;;7.30;99.90;;;;;;5053582;28;20044;-44
2022/11/23 07:50:53;;;;;;;23.85;15.05;;;7.30;99.90;;;;;;5035319;28;20052;-46
2022/11/23 07:53:19;;;;;;;22.85;15.40;;;7.40;99.90;;;;;;5036504;28;20458;-45
2022/11/23 07:55:45;;;;;;;24.02;14.82;;;7.40;99.90;;;;;;5054005;28;20049;-42
2022/11/23 07:58:11;;;;;;;19.45;13.45;;;7.40;99.90;;;;;;5054360;28;20110;-47
2022/11/23 08:00:37;;;;;;;22.52;13.90;;;7.50;99.90;;;;;;5052757;28;20349;-45
2022/11/23 08:03:03;;;;;;;23.30;14.18;;;7.50;99.90;;;;;;5054020;28;20489;-44
2022/11/23 08:05:31;;;;;;;26.08;14.88;;;7.50;99.90;;;;;;5053482;28;20487;-45
2022/11/23 08:07:58;;;;;;;22.52;14.13;;;7.60;99.90;;;;;;5054499;28;20098;-45
2022/11/23 08:10:29;;;;;;;23.10;14.63;;;7.60;99.90;;;;;;5051325;28;20901;-47
2022/11/23 08:13:02;;;;;;;25.13;15.25;;;7.60;99.90;;;;;;5054759;28;20515;-46
2022/11/23 08:15:28;;;;;;;22.17;14.50;;;7.60;99.90;;;;;;5053990;28;20052;-45
2022/11/23 08:17:59;;;;;;;24.77;14.85;;;7.60;99.90;;;;;;5054353;28;20113;-49
2022/11/23 08:20:26;;;;;;;23.83;13.98;;;7.70;99.90;;;;;;5052024;28;20152;-45
2022/11/23 08:22:54;;;;;;;21.60;13.60;;;7.70;99.90;;;;;;5053417;28;20048;-43
2022/11/23 08:25:21;;;;;;;21.17;13.20;;;7.70;99.90;;;;;;5052975;28;20538;-44
2022/11/23 08:27:47;;;;;;;24.42;13.57;;;7.70;99.90;;;;;;5055944;28;20258;-46
2022/11/23 08:30:13;;;;;;;19.13;12.00;;;7.70;99.90;;;;;;5054128;28;20056;-45
2022/11/23 08:32:40;;;;;;;26.00;13.10;;;7.70;99.90;;;;;;5055679;28;20098;-46
2022/11/23 08:35:06;;;;;;;20.60;12.85;;;7.70;99.90;;;;;;5055630;28;20383;-47
2022/11/23 08:37:31;;;;;;;19.13;12.27;;;7.70;99.90;;;;;;5055765;28;20052;-42
2022/11/23 08:39:57;;;;;;;19.98;13.10;;;7.80;99.90;;;;;;5055343;28;20084;-46
2022/11/23 08:42:22;;;;;;;17.65;11.20;;;7.70;99.90;;;;;;5056672;28;20162;-46
2022/11/23 08:44:48;;;;;;;24.25;11.55;;;7.70;99.90;;;;;;5052961;28;20040;-43
2022/11/23 08:47:14;;;;;;;20.73;11.27;;;7.80;99.90;;;;;;5055821;28;20581;-46
2022/11/23 08:49:39;;;;;;;18.17;11.20;;;7.80;99.90;;;;;;5054504;28;20163;-46
2022/11/23 08:52:05;;;;;;;16.83;10.52;;;7.80;99.90;;;;;;5056087;28;20052;-44
2022/11/23 08:54:31;;;;;;;23.48;10.82;;;7.90;99.90;;;;;;5056063;28;20123;-47
2022/11/23 08:56:56;;;;;;;18.30;10.32;;;8.00;99.90;;;;;;5054669;28;20135;-43
2022/11/23 08:59:22;;;;;;;22.50;10.68;;;7.90;99.90;;;;;;5053742;28;20052;-45
2022/11/23 09:01:48;;;;;;;18.40;9.23;;;7.90;99.90;;;;;;5057129;28;20107;-47
2022/11/23 09:04:13;;;;;;;16.15;9.18;;;8.00;99.90;;;;;;5056255;28;20875;-46
2022/11/23 09:06:39;;;;;;;16.80;8.10;;;8.00;99.90;;;;;;5054649;28;20044;-43
2022/11/23 09:09:05;;;;;;;18.52;9.15;;;8.10;99.90;;;;;;5055344;28;20097;-43
2022/11/23 09:11:31;;;;;;;20.55;8.02;;;8.10;99.90;;;;;;5056361;28;20141;-45
2022/11/23 09:13:57;;;;;;;19.33;8.93;;;8.00;99.90;;;;;;5056462;28;20146;-46
2022/11/23 09:16:23;;;;;;;17.15;8.60;;;8.00;99.90;;;;;;5056125;28;20063;-46
2022/11/23 09:18:49;;;;;;;17.95;9.20;;;8.10;99.90;;;;;;5055083;28;20821;-43
2022/11/23 09:21:15;;;;;;;20.15;8.27;;;8.10;99.90;;;;;;5053997;28;20114;-44
2022/11/23 09:23:40;;;;;;;15.30;7.95;;;8.10;99.90;;;;;;5054410;28;20060;-43
2022/11/23 09:26:06;;;;;;;17.58;8.55;;;8.10;99.90;;;;;;5054728;28;20056;-43
2022/11/23 09:28:32;;;;;;;17.23;8.25;;;8.10;99.90;;;;;;5055110;28;20373;-42
2022/11/23 09:31:02;;;;;;;18.15;8.18;;;8.10;99.90;;;;;;5056474;28;20056;-47
2022/11/23 09:33:28;;;;;;;17.40;8.20;;;8.20;99.90;;;;;;5055938;28;20049;-47
2022/11/23 09:36:02;;;;;;;20.58;8.25;;;8.20;99.90;;;;;;5056305;28;20188;-47
2022/11/23 09:38:28;;;;;;;14.85;7.15;;;8.10;99.90;;;;;;5056310;28;20088;-43
2022/11/23 09:41:35;;;;;;;20.92;8.32;;;8.10;99.90;;;;;;5054313;28;20139;-50
2022/11/23 09:44:09;;;;;;;19.15;7.50;;;8.10;99.90;;;;;;5072732;28;20526;-42
2022/11/23 09:46:53;;;;;;;18.40;7.63;;;8.10;99.90;;;;;;5059132;28;20214;-43
2022/11/23 09:49:21;;;;;;;21.10;7.70;;;8.10;99.90;;;;;;5054792;28;20890;-48
2022/11/23 09:51:49;;;;;;;19.48;8.95;;;8.20;99.90;;;;;;5056767;28;20075;-43
2022/11/23 09:54:48;;;;;;;16.05;7.28;;;8.20;99.90;;;;;;5070849;28;20056;-45
2022/11/23 09:57:18;;;;;;;16.48;6.95;;;8.30;99.90;;;;;;4992716;28;20064;-49
2022/11/23 09:59:53;;;;;;;18.67;7.38;;;8.30;99.90;;;;;;4990747;28;20065;-42
2022/11/23 10:02:21;;;;;;;21.27;8.25;;;8.30;99.90;;;;;;4991639;28;20099;-46
2022/11/23 10:04:47;;;;;;;21.42;7.47;;;8.30;99.90;;;;;;4991634;28;20037;-45
2022/11/23 10:07:50;;;;;;;20.05;7.10;;;8.30;99.90;;;;;;4982042;28;20073;-43
2022/11/23 10:10:38;;;;;;;22.25;7.55;;;8.30;99.90;;;;;;4973885;28;21708;-44
2022/11/23 10:13:15;;;;;;;16.40;7.38;;;8.30;99.90;;;;;;4977744;28;20056;-42
2022/11/23 10:15:52;;;;;;;18.52;7.00;;;8.30;99.90;;;;;;4974775;28;20650;-46
2022/11/23 10:18:27;;;;;;;19.83;7.57;;;8.30;99.90;;;;;;4972722;28;20057;-44
2022/11/23 10:21:02;;;;;;;16.48;5.43;;;8.30;99.90;;;;;;4992774;28;20140;-44
2022/11/23 10:23:44;;;;;;;22.55;6.70;;;8.30;99.90;;;;;;4986337;28;20141;-46
2022/11/23 10:26:16;;;;;;;21.27;6.40;;;8.30;99.90;;;;;;4973134;28;20054;-45
2022/11/23 10:28:42;;;;;;;19.67;6.20;;;8.30;99.90;;;;;;4984280;28;20110;-44
2022/11/23 10:31:19;;;;;;;21.55;6.25;;;8.30;99.90;;;;;;4977403;28;20100;-46
2022/11/23 10:34:14;;;;;;;16.13;6.07;;;8.30;99.90;;;;;;5035887;28;20102;-44
2022/11/23 10:36:41;;;;;;;23.80;6.50;;;8.30;99.90;;;;;;5054516;28;20076;-45
2022/11/23 10:39:21;;;;;;;22.10;6.57;;;8.30;99.90;;;;;;5053366;28;20056;-45
2022/11/23 10:41:48;;;;;;;15.93;5.53;;;8.40;99.90;;;;;;5054847;28;20102;-45
2022/11/23 10:44:16;;;;;;;18.92;5.75;;;8.50;99.90;;;;;;5053901;28;20052;-48
2022/11/23 10:46:43;;;;;;;15.20;6.13;;;8.60;99.90;;;;;;5051370;28;20066;-42
2022/11/23 10:49:08;;;;;;;20.35;6.68;;;8.60;99.90;;;;;;5051313;28;20056;-46
2022/11/23 10:51:34;;;;;;;14.75;5.20;;;8.60;99.90;;;;;;5054785;28;20187;-44
2022/11/23 10:54:05;;;;;;;17.00;5.57;;;8.60;99.90;;;;;;5054660;28;20048;-44
2022/11/23 10:56:33;;;;;;;18.55;5.57;;;8.50;99.90;;;;;;5054392;28;20044;-50
2022/11/23 10:58:59;;;;;;;20.98;6.15;;;8.50;99.90;;;;;;5053091;28;20056;-44
2022/11/23 11:01:28;;;;;;;17.30;5.47;;;8.40;99.90;;;;;;5054630;28;20091;-51
2022/11/23 11:03:55;;;;;;;14.85;5.78;;;8.50;99.90;;;;;;5053227;28;20055;-45
2022/11/23 11:06:23;;;;;;;16.95;4.93;;;8.50;99.90;;;;;;5052313;28;20048;-42
2022/11/23 11:09:20;;;;;;;13.07;5.55;;;8.60;99.90;;;;;;5035215;28;20048;-46
2022/11/23 11:11:47;;;;;;;18.70;5.40;;;8.50;99.90;;;;;;5058229;28;20091;-43
2022/11/23 11:14:19;;;;;;;14.88;4.75;;;8.40;99.90;;;;;;5057294;28;20139;-42
2022/11/23 11:16:49;;;;;;;18.13;5.25;;;8.30;99.90;;;;;;5070902;28;20169;-47
2022/11/23 11:19:34;;;;;;;18.42;5.07;;;8.30;99.90;;;;;;5065560;28;20131;-45
2022/11/23 11:22:03;;;;;;;21.90;4.82;;;8.40;99.90;;;;;;5064680;28;20101;-43
2022/11/23 11:24:34;;;;;;;15.52;4.07;;;8.30;99.90;;;;;;5070968;28;20091;-43
2022/11/23 11:27:14;;;;;;;13.55;4.18;;;8.40;99.90;;;;;;5071364;28;20413;-42
2022/11/23 11:29:43;;;;;;;15.32;3.70;;;8.50;99.90;;;;;;5070327;28;20278;-45
2022/11/23 11:32:17;;;;;;;16.98;4.25;;;8.50;99.90;;;;;;5071652;28;20052;-43
2022/11/23 11:34:48;;;;;;;18.00;3.85;;;8.60;99.90;;;;;;5070835;28;20044;-47
2022/11/23 11:37:14;;;;;;;14.57;4.63;;;8.60;99.90;;;;;;5060595;28;20062;-44
2022/11/23 11:39:39;;;;;;;16.38;3.85;;;8.60;99.90;;;;;;5056875;28;20684;-45
2022/11/23 11:42:15;;;;;;;18.60;4.88;;;8.70;99.90;;;;;;5047695;28;20498;-45
2022/11/23 11:44:42;;;;;;;15.45;4.47;;;8.70;99.90;;;;;;5052459;28;20071;-47
2022/11/23 11:47:38;;;;;;;15.48;4.10;;;8.70;99.90;;;;;;5051246;28;20053;-43
2022/11/23 11:50:28;;;;;;;16.60;3.90;;;8.70;99.90;;;;;;5051772;28;20464;-42
2022/11/23 11:53:01;;;;;;;18.10;4.63;;;8.80;99.90;;;;;;5049833;28;20045;-50
2022/11/23 11:55:55;;;;;;;16.17;3.83;;;8.80;99.90;;;;;;5053523;28;20040;-44
2022/11/23 11:58:24;;;;;;;13.13;3.70;;;8.80;99.90;;;;;;5019707;28;20057;-42
2022/11/23 12:01:12;;;;;;;11.50;3.47;;;8.90;99.90;;;;;;5028704;28;20331;-48
2022/11/23 12:03:54;;;;;;;18.08;3.70;;;8.90;99.90;;;;;;5044964;28;20206;-49
2022/11/23 12:06:34;;;;;;;17.83;4.82;;;8.90;99.90;;;;;;5025532;28;20359;-47
2022/11/23 12:09:15;;;;;;;17.67;4.50;;;9.00;99.90;;;;;;5025969;28;20049;-47
2022/11/23 12:11:41;;;;;;;13.40;4.03;;;9.00;99.90;;;;;;5023325;28;21087;-44
2022/11/23 12:14:11;;;;;;;22.40;5.10;;;9.00;99.90;;;;;;5019765;28;20175;-43
2022/11/23 12:16:58;;;;;;;14.95;3.83;;;9.00;99.90;;;;;;5017635;28;20143;-47
2022/11/23 12:19:28;;;;;;;17.63;4.03;;;9.10;99.90;;;;;;5018885;28;20118;-49
2022/11/23 12:22:12;;;;;;;14.02;3.58;;;9.10;99.90;;;;;;5012306;28;20062;-45
2022/11/23 12:24:43;;;;;;;;;;;9.10;99.90;;;;;;5027300;28;20156;-45
2022/11/23 12:27:38;;;;;;;18.48;3.97;;;9.20;99.90;;;;;;5033718;28;19924;-44
2022/11/23 12:30:13;;;;;;;11.88;3.63;;;9.20;99.90;;;;;;5019223;28;20709;-45
2022/11/23 12:33:06;;;;;;;16.80;4.22;;;9.10;99.90;;;;;;5005230;28;20463;-47
2022/11/23 12:35:54;;;;;;;15.38;3.45;;;9.10;99.90;;;;;;5036566;28;20059;-44
2022/11/23 12:38:38;;;;;;;12.73;3.08;;;9.10;99.90;;;;;;5056280;28;20178;-45
2022/11/23 12:41:23;;;;;;;11.80;2.80;;;9.10;99.90;;;;;;5055173;28;20518;-46
2022/11/23 12:44:23;;;;;;;16.67;3.63;;;9.10;99.90;;;;;;5057241;28;20096;-43
2022/11/23 12:47:07;;;;;;;16.65;3.42;;;9.10;99.90;;;;;;5054892;28;20496;-46
2022/11/23 12:49:43;;;;;;;13.73;3.35;;;9.10;99.90;;;;;;5055212;28;20131;-51